Lone Tree, Colorado
Current Conditions -  °F | °C
As of 4:53 PM on Thursday 18 Dec 2014 (Local Time) from KAPA Reporting Station
Haze Haze  
Wind Chill: 30°   Ceiling: 11000
Heat Index: 36°   Visibility: 6mi
Dew Point: 27°   Wind: 7mph
Humidity: 70%   Direction: 340°NNW
Pressure: 30.03"   Gusts: NA
Location:  39.5742°N, 104.858°W
Report Text: KAPA 182353Z 34006KT 6SM HZ SCT085 BKN110 02/M03 A3003 RMK AO2 SLP192 T00221028 10067 20017 53013
Loading
Personal Weather Stations






























Interactive Weather Map New forecast layout! Learn more

10-Day Weather Forecast

Advertisements
Track Severe Weather on mobile